עמוד ראשי
METAR-TAF:

METAR-TAF

שדות תעופה :

Aghajari, איראן

קו רוחב: 30-46N, קו אורך: 049-40E, גובה: 29מטר

תצפית מזג אוויר נוכחית

הדו"ח נערך לפני 29דקות, בשעה 06:00 UTC
רוח 4קשר מכיוון דרום-מזרח
טמפרטורת 44 צלסיוס
לחות 13%
לחץ 998 hPa
ראות 10 קילומטר או יותר
ללא עננים שבסיסם נמוך מ 5000 רגל או קומולונימבוס

METAR: OIAG 200600Z 14004KT CAVOK 44/10 Q0998

זמן: 10:59 (06:29 UTC)


TAF: חסר

תצפיות ותחזיות מזג אוויר לגבי יותר מ- 4,000 שדות תעופה ברחבי העולם. דוחות METAR ו- TAF.

התחנות הזמינות מסומנות בנקודות צהובות ואדומות על גבי המפה.

העבר את העכבר לנקודה הצבעונית על מנת לראות את שם התחנה.

לאחר מכן, לחץ כדי לראות את תוכן ואת תחזיות מזג האוויר.

כדי לשנות את המפה: לחץ על הכפתורים הירוקים עם הפלוס השחור כדי להתקרב; על הכפתור הירוק עם המקף כדי להתרחק; או בחיצים הירוקים למפות סמוכות.


METAR-TAF: